Time;durP1;ratioP1;P1;durP2;ratioP2;P2;SDS_P1;SDS_P2;PMS_P1;PMS_P2;Temp;Humidity;BMP_temperature;BMP_pressure;BME280_temperature;BME280_humidity;BME280_pressure;Samples;Min_cycle;Max_cycle;Signal;HPM_P1;HPM_P2
2023/12/25 00:01:10;;;;;;;0.40;0.40;;;;;;;3.87;100.00;98639.88;5093834;28;20071;-67
2023/12/25 00:03:39;;;;;;;2.50;1.45;;;;;;;3.89;100.00;98640.72;5093799;28;20048;-68
2023/12/25 00:06:19;;;;;;;0.38;0.38;;;;;;;3.96;100.00;98645.84;5094112;28;20139;-71
2023/12/25 00:08:51;;;;;;;0.40;0.40;;;;;;;3.89;100.00;98634.00;5094313;28;20041;-70
2023/12/25 00:11:22;;;;;;;0.40;0.40;;;;;;;3.94;100.00;98662.66;5092808;28;20059;-68
2023/12/25 00:13:54;;;;;;;0.50;0.50;;;;;;;3.92;100.00;98659.28;5093873;28;20068;-70
2023/12/25 00:16:26;;;;;;;0.40;0.40;;;;;;;3.93;100.00;98645.84;5093977;28;20048;-68
2023/12/25 00:18:58;;;;;;;0.60;0.60;;;;;;;4.04;100.00;98639.19;5093916;28;20044;-68
2023/12/25 00:21:27;;;;;;;0.35;0.35;;;;;;;4.34;100.00;98640.25;5093891;28;20148;-68
2023/12/25 00:23:56;;;;;;;0.50;0.50;;;;;;;4.55;100.00;98643.78;5093742;28;20402;-68
2023/12/25 00:26:27;;;;;;;0.38;0.38;;;;;;;4.65;100.00;98639.63;5093852;28;20261;-70
2023/12/25 00:29:03;;;;;;;0.85;0.85;;;;;;;4.65;100.00;98649.72;5093090;28;20078;-68
2023/12/25 00:31:33;;;;;;;0.80;0.80;;;;;;;4.66;100.00;98641.28;5092636;28;20051;-68
2023/12/25 00:34:02;;;;;;;1.17;0.88;;;;;;;4.82;100.00;98648.13;5092602;28;20494;-70
2023/12/25 00:36:31;;;;;;;0.57;0.57;;;;;;;5.10;100.00;98644.91;5093794;28;20044;-68
2023/12/25 00:39:00;;;;;;;0.32;0.32;;;;;;;5.23;100.00;98644.09;5094265;28;20467;-68
2023/12/25 00:41:31;;;;;;;0.80;0.80;;;;;;;5.37;100.00;98644.97;5093761;28;20063;-69
2023/12/25 00:44:00;;;;;;;0.50;0.50;;;;;;;5.51;100.00;98657.69;5093703;28;20090;-68
2023/12/25 00:46:29;;;;;;;0.60;0.60;;;;;;;5.68;100.00;98645.91;5096219;28;20516;-68
2023/12/25 00:48:58;;;;;;;0.30;0.30;;;;;;;5.72;100.00;98647.59;5097689;28;20043;-68
2023/12/25 00:51:27;;;;;;;1.38;1.30;;;;;;;5.68;100.00;98656.03;5097355;28;20089;-67
2023/12/25 00:53:56;;;;;;;0.53;0.53;;;;;;;5.76;100.00;98648.47;5095932;28;20432;-67
2023/12/25 00:56:25;;;;;;;0.50;0.50;;;;;;;5.83;100.00;98660.28;5096662;28;20048;-66
2023/12/25 00:58:56;;;;;;;0.30;0.30;;;;;;;6.01;100.00;98655.28;5096347;28;20072;-68
2023/12/25 01:01:24;;;;;;;0.30;0.30;;;;;;;6.31;100.00;98660.31;5096028;28;20048;-67
2023/12/25 01:03:53;;;;;;;1.08;1.05;;;;;;;6.36;100.00;98648.50;5095849;28;20051;-67
2023/12/25 01:06:23;;;;;;;1.48;1.38;;;;;;;6.30;100.00;98628.25;5096141;28;20048;-68
2023/12/25 01:08:51;;;;;;;0.40;0.40;;;;;;;6.52;100.00;98646.81;5096147;28;20028;-69
2023/12/25 01:11:20;;;;;;;0.50;0.50;;;;;;;6.51;100.00;98643.44;5097297;28;20044;-68
2023/12/25 01:13:49;;;;;;;0.30;0.30;;;;;;;6.52;100.00;98649.34;5095964;28;20452;-68
2023/12/25 01:16:20;;;;;;;0.52;0.52;;;;;;;6.54;100.00;98645.13;5095604;28;20043;-68
2023/12/25 01:18:48;;;;;;;0.40;0.40;;;;;;;6.42;100.00;98660.34;5096847;28;20557;-68
2023/12/25 01:21:17;;;;;;;1.08;1.05;;;;;;;6.24;100.00;98658.63;5097241;28;20486;-68
2023/12/25 01:23:46;;;;;;;0.82;0.82;;;;;;;6.12;100.00;98662.88;5095817;28;20032;-67
2023/12/25 01:26:15;;;;;;;0.40;0.40;;;;;;;6.00;100.00;98658.63;5097001;28;20043;-69
2023/12/25 01:28:45;;;;;;;0.40;0.40;;;;;;;6.03;100.00;98666.25;5096965;28;20052;-67
2023/12/25 01:31:13;;;;;;;0.63;0.63;;;;;;;5.92;100.00;98665.41;5096649;28;20068;-69
2023/12/25 01:33:44;;;;;;;1.33;1.23;;;;;;;5.80;100.00;98665.34;5095693;28;20360;-67
2023/12/25 01:36:13;;;;;;;0.77;0.70;;;;;;;5.82;100.00;98668.72;5096400;28;20755;-67
2023/12/25 01:38:42;;;;;;;0.50;0.50;;;;;;;5.91;100.00;98654.41;5095261;28;20569;-66
2023/12/25 01:41:10;;;;;;;0.37;0.37;;;;;;;6.01;100.00;98662.88;5096394;28;20078;-68
2023/12/25 01:43:47;;;;;;;0.40;0.40;;;;;;;6.11;100.00;98667.09;5095531;28;20055;-66
2023/12/25 01:46:17;;;;;;;0.22;0.22;;;;;;;6.15;100.00;98673.84;5096810;28;20493;-68
2023/12/25 01:48:51;;;;;;;0.82;0.55;;;;;;;6.15;100.00;98683.13;5096533;28;20040;-66
2023/12/25 01:51:22;;;;;;;6.20;0.75;;;;;;;6.12;100.00;98678.91;5095634;28;20511;-68
2023/12/25 01:53:52;;;;;;;1.88;1.70;;;;;;;6.27;100.00;98678.91;5095308;28;20058;-66
2023/12/25 01:56:22;;;;;;;1.92;0.60;;;;;;;6.28;100.00;98679.78;5095293;28;20032;-67
2023/12/25 01:58:51;;;;;;;0.28;0.28;;;;;;;6.32;100.00;98687.38;5094893;28;20110;-67
2023/12/25 02:01:20;;;;;;;0.40;0.40;;;;;;;6.34;100.00;98685.66;5094604;28;20105;-69
2023/12/25 02:03:51;;;;;;;0.27;0.27;;;;;;;6.41;100.00;98691.56;5095061;28;20148;-68
2023/12/25 02:06:20;;;;;;;0.30;0.30;;;;;;;6.25;100.00;98675.53;5095870;28;20040;-68
2023/12/25 02:08:48;;;;;;;0.40;0.40;;;;;;;6.23;100.00;98692.44;5094978;28;20103;-68
2023/12/25 02:11:17;;;;;;;0.52;0.52;;;;;;;6.08;100.00;98697.47;5096105;28;20113;-69
2023/12/25 02:13:46;;;;;;;10.30;1.45;;;;;;;6.12;100.00;98683.97;5096074;28;20076;-68
2023/12/25 02:16:15;;;;;;;0.95;0.93;;;;;;;6.34;100.00;98697.50;5095633;28;20044;-68
2023/12/25 02:18:44;;;;;;;0.70;0.70;;;;;;;6.56;100.00;98692.44;5094585;28;20093;-68
2023/12/25 02:21:15;;;;;;;0.20;0.20;;;;;;;6.82;100.00;98689.84;5095943;28;20047;-69
2023/12/25 02:23:48;;;;;;;0.35;0.35;;;;;;;6.75;100.00;98689.03;5094727;28;20059;-68
2023/12/25 02:26:18;;;;;;;0.47;0.47;;;;;;;6.65;100.00;98706.78;5095785;28;20410;-67
2023/12/25 02:28:47;;;;;;;1.95;1.13;;;;;;;6.74;100.00;98694.94;5094480;28;20498;-66
2023/12/25 02:31:18;;;;;;;0.70;0.70;;;;;;;6.65;100.00;98696.63;5095387;28;20040;-66
2023/12/25 02:33:47;;;;;;;0.47;0.47;;;;;;;6.67;100.00;98700.84;5095725;28;20047;-68
2023/12/25 02:36:15;;;;;;;0.50;0.50;;;;;;;6.77;100.00;98706.75;5095288;28;20028;-65
2023/12/25 02:38:45;;;;;;;0.80;0.80;;;;;;;6.81;100.00;98707.59;5095230;28;20036;-68
2023/12/25 02:41:13;;;;;;;0.60;0.60;;;;;;;6.88;100.00;98705.06;5095239;28;20501;-68
2023/12/25 02:43:44;;;;;;;0.70;0.70;;;;;;;6.80;100.00;98710.97;5095491;28;20486;-68
2023/12/25 02:46:13;;;;;;;0.88;0.88;;;;;;;6.74;100.00;98716.94;5095475;28;20323;-68
2023/12/25 02:48:41;;;;;;;1.07;0.97;;;;;;;6.61;100.00;98715.22;5095528;28;20505;-68
2023/12/25 02:51:10;;;;;;;0.75;0.70;;;;;;;6.57;100.00;98719.47;5093843;28;20109;-68
2023/12/25 02:53:39;;;;;;;0.90;0.90;;;;;;;6.72;100.00;98719.44;5095115;28;20130;-67
2023/12/25 02:56:08;;;;;;;0.60;0.60;;;;;;;6.84;100.00;98707.63;5093890;28;20101;-67
2023/12/25 02:58:37;;;;;;;0.50;0.50;;;;;;;6.87;100.00;98707.59;5094823;28;20094;-69
2023/12/25 03:01:08;;;;;;;0.68;0.68;;;;;;;6.93;100.00;98718.59;5094893;28;20047;-69
2023/12/25 03:03:37;;;;;;;0.20;0.20;;;;;;;6.89;100.00;98721.09;5095130;28;20089;-68
2023/12/25 03:06:05;;;;;;;1.60;1.33;;;;;;;6.95;100.00;98721.97;5094907;28;20397;-68
2023/12/25 03:08:35;;;;;;;0.50;0.50;;;;;;;6.96;100.00;98720.28;5092413;28;20281;-67
2023/12/25 03:11:04;;;;;;;1.48;1.05;;;;;;;6.97;100.00;98721.94;5094678;28;20048;-67
2023/12/25 03:13:33;;;;;;;0.75;0.75;;;;;;;6.93;100.00;98710.13;5094628;28;20502;-67
2023/12/25 03:16:05;;;;;;;0.67;0.67;;;;;;;6.94;100.00;98709.25;5093550;28;20115;-66
2023/12/25 03:18:36;;;;;;;1.15;1.05;;;;;;;6.89;100.00;98710.97;5093688;28;20398;-66
2023/12/25 03:21:06;;;;;;;1.08;0.98;;;;;;;6.83;100.00;98713.53;5094502;28;20123;-66
2023/12/25 03:23:33;;;;;;;0.50;0.50;;;;;;;6.96;100.00;98723.63;5093603;28;20036;-68
2023/12/25 03:26:02;;;;;;;0.20;0.20;;;;;;;7.00;100.00;98721.94;5094393;28;20101;-67
2023/12/25 03:28:31;;;;;;;1.13;1.00;;;;;;;6.92;100.00;98726.19;5094300;28;20491;-70
2023/12/25 03:31:00;;;;;;;0.50;0.50;;;;;;;6.95;100.00;98726.19;5094544;28;20109;-67
2023/12/25 03:33:31;;;;;;;0.22;0.22;;;;;;;6.97;100.00;98724.47;5094598;28;20482;-68
2023/12/25 03:36:01;;;;;;;0.40;0.40;;;;;;;6.94;100.00;98729.56;5094702;28;20131;-68
2023/12/25 03:38:30;;;;;;;1.17;1.05;;;;;;;6.82;100.00;98714.34;5094199;28;20127;-70
2023/12/25 03:40:59;;;;;;;1.50;0.68;;;;;;;6.78;100.00;98722.81;5093187;28;20032;-70
2023/12/25 03:43:28;;;;;;;0.32;0.32;;;;;;;6.79;100.00;98720.28;5093505;28;20050;-68
2023/12/25 03:45:58;;;;;;;0.50;0.50;;;;;;;6.85;100.00;98724.50;5094388;28;20043;-68
2023/12/25 03:48:27;;;;;;;0.30;0.30;;;;;;;6.81;100.00;98725.38;5094383;28;20044;-68
2023/12/25 03:50:56;;;;;;;0.73;0.73;;;;;;;6.99;100.00;98732.94;5094137;28;20040;-67
2023/12/25 03:53:26;;;;;;;0.63;0.63;;;;;;;7.11;100.00;98732.91;5093954;28;20047;-70
2023/12/25 03:55:55;;;;;;;1.23;1.15;;;;;;;7.13;100.00;98741.34;5093826;28;20560;-70
2023/12/25 03:58:24;;;;;;;0.40;0.40;;;;;;;7.22;100.00;98749.78;5093942;28;20051;-70
2023/12/25 04:00:53;;;;;;;0.40;0.40;;;;;;;7.27;100.00;98749.81;5093831;28;20040;-68
2023/12/25 04:03:22;;;;;;;0.30;0.30;;;;;;;7.21;100.00;98754.88;5092956;28;20364;-68
2023/12/25 04:05:51;;;;;;;0.50;0.50;;;;;;;7.03;100.00;98754.94;5094091;28;20040;-70
2023/12/25 04:08:20;;;;;;;0.50;0.50;;;;;;;6.89;100.00;98756.59;5092928;28;20455;-68
2023/12/25 04:10:50;;;;;;;2.97;1.80;;;;;;;6.82;100.00;98760.84;5092772;28;20040;-69
2023/12/25 04:13:19;;;;;;;0.40;0.40;;;;;;;6.92;100.00;98761.69;5092816;28;20058;-70
2023/12/25 04:15:48;;;;;;;0.40;0.40;;;;;;;7.08;100.00;98756.59;5092407;28;20040;-68
2023/12/25 04:18:17;;;;;;;0.45;0.45;;;;;;;6.99;100.00;98753.22;5093696;28;20566;-70
2023/12/25 04:20:46;;;;;;;0.23;0.23;;;;;;;7.09;100.00;98749.81;5091994;28;20436;-68
2023/12/25 04:23:15;;;;;;;0.30;0.30;;;;;;;7.17;100.00;98754.06;5092706;28;20291;-70
2023/12/25 04:25:44;;;;;;;0.30;0.30;;;;;;;7.27;100.00;98757.41;5092687;28;20539;-67
2023/12/25 04:28:14;;;;;;;1.80;0.73;;;;;;;7.40;100.00;98766.66;5092704;28;20326;-67
2023/12/25 04:30:43;;;;;;;0.30;0.30;;;;;;;7.42;100.00;98747.19;5093507;28;20508;-69
2023/12/25 04:33:12;;;;;;;0.43;0.43;;;;;;;7.50;100.00;98777.63;5092312;28;20033;-68
2023/12/25 04:35:41;;;;;;;0.30;0.30;;;;;;;7.45;100.00;98785.25;5092662;28;20044;-70
2023/12/25 04:38:11;;;;;;;0.43;0.43;;;;;;;7.29;100.00;98778.56;5092872;28;20040;-70
2023/12/25 04:40:41;;;;;;;0.38;0.38;;;;;;;7.29;100.00;98781.09;5093733;28;20116;-68
2023/12/25 04:43:10;;;;;;;0.30;0.30;;;;;;;7.28;100.00;98784.47;5092497;28;20040;-68
2023/12/25 04:45:42;;;;;;;0.50;0.50;;;;;;;7.33;100.00;98778.53;5093746;28;20157;-70
2023/12/25 04:48:11;;;;;;;0.30;0.30;;;;;;;7.47;100.00;98783.56;5093648;28;20472;-68
2023/12/25 04:50:41;;;;;;;0.43;0.43;;;;;;;7.55;100.00;98792.00;5093702;28;20048;-70
2023/12/25 04:53:11;;;;;;;0.85;0.85;;;;;;;7.52;100.00;98788.63;5093544;28;20135;-70
2023/12/25 04:55:41;;;;;;;0.57;0.57;;;;;;;7.76;100.00;98783.47;5075036;28;20383;-67
2023/12/25 04:58:09;;;;;;;;;;;;;;;7.95;100.00;98777.44;5093687;28;20052;-69
2023/12/25 05:00:38;;;;;;;0.63;0.63;;;;;;;7.96;100.00;98780.00;5091745;28;19919;-69
2023/12/25 05:03:10;;;;;;;0.63;0.63;;;;;;;7.95;100.00;98780.00;5075398;28;20040;-68
2023/12/25 05:05:39;;;;;;;0.45;0.45;;;;;;;7.93;100.00;98771.53;5093569;28;20075;-67
2023/12/25 05:08:07;;;;;;;0.40;0.40;;;;;;;7.95;100.00;98770.69;5093200;28;20498;-67
2023/12/25 05:10:36;;;;;;;0.70;0.70;;;;;;;8.03;100.00;98763.88;5091983;28;20040;-67
2023/12/25 05:13:05;;;;;;;1.15;1.10;;;;;;;8.07;100.00;98768.06;5091988;28;20036;-68
2023/12/25 05:15:34;;;;;;;0.30;0.30;;;;;;;8.09;100.00;98765.50;5093061;28;20040;-67
2023/12/25 05:18:04;;;;;;;0.40;0.40;;;;;;;8.04;100.00;98773.16;5092175;28;20036;-69
2023/12/25 05:20:35;;;;;;;0.40;0.40;;;;;;;8.11;100.00;98779.03;5093410;28;20048;-69
2023/12/25 05:23:05;;;;;;;0.30;0.30;;;;;;;8.07;100.00;98788.41;5093022;28;20059;-68
2023/12/25 05:25:33;;;;;;;6.72;1.33;;;;;;;8.06;100.00;98786.69;5093064;28;20044;-68
2023/12/25 05:28:02;;;;;;;1.43;1.33;;;;;;;8.00;100.00;98791.81;5092951;28;20041;-69
2023/12/25 05:30:31;;;;;;;0.50;0.50;;;;;;;8.00;100.00;98791.81;5093296;28;20041;-68
2023/12/25 05:33:00;;;;;;;0.30;0.30;;;;;;;7.94;100.00;98794.38;5095734;28;20043;-68
2023/12/25 05:35:30;;;;;;;0.77;0.60;;;;;;;7.92;100.00;98793.53;5097099;28;20059;-67
2023/12/25 05:38:01;;;;;;;0.40;0.40;;;;;;;7.91;100.00;98796.09;5096596;28;20281;-69
2023/12/25 05:40:30;;;;;;;0.90;0.88;;;;;;;7.83;100.00;98795.28;5096457;28;20498;-69
2023/12/25 05:42:58;;;;;;;0.30;0.30;;;;;;;7.79;100.00;98801.22;5095387;28;20497;-68
2023/12/25 05:45:28;;;;;;;0.50;0.50;;;;;;;7.80;100.00;98802.91;5096496;28;20252;-69
2023/12/25 05:47:56;;;;;;;0.30;0.30;;;;;;;7.76;100.00;98814.78;5096485;28;20121;-69
2023/12/25 05:50:26;;;;;;;;;;;;;;;7.73;100.00;98812.25;5096496;28;20046;-67
2023/12/25 05:52:55;;;;;;;0.32;0.32;;;;;;;7.68;100.00;98813.97;5096114;28;19920;-69
2023/12/25 05:55:26;;;;;;;;;;;;;;;7.74;100.00;98813.94;5096598;28;20402;-68
2023/12/25 05:57:55;;;;;;;0.38;0.38;;;;;;;7.85;100.00;98827.44;5095919;28;19920;-67
2023/12/25 06:00:24;;;;;;;0.50;0.50;;;;;;;7.94;100.00;98822.31;5095879;28;20054;-69
2023/12/25 06:02:53;;;;;;;0.40;0.40;;;;;;;8.02;100.00;98819.75;5095734;28;20040;-67
2023/12/25 06:05:22;;;;;;;0.65;0.65;;;;;;;8.10;100.00;98823.97;5095716;28;20303;-68
2023/12/25 06:07:51;;;;;;;0.45;0.43;;;;;;;8.22;100.00;98822.19;5096302;28;20044;-69
2023/12/25 06:10:20;;;;;;;0.30;0.30;;;;;;;8.24;100.00;98807.78;5095766;28;20501;-67
2023/12/25 06:12:51;;;;;;;0.50;0.50;;;;;;;8.35;100.00;98816.25;5095931;28;20040;-69
2023/12/25 06:15:20;;;;;;;0.40;0.40;;;;;;;8.32;99.84;98803.53;5096226;28;20071;-68
2023/12/25 06:17:48;;;;;;;0.60;0.60;;;;;;;8.36;99.58;98805.22;5095546;28;20052;-69
2023/12/25 06:20:18;;;;;;;0.35;0.35;;;;;;;8.42;99.71;98805.19;5094615;28;20044;-68
2023/12/25 06:22:47;;;;;;;0.40;0.40;;;;;;;8.50;99.83;98811.03;5095790;28;20585;-67
2023/12/25 06:25:16;;;;;;;0.40;0.40;;;;;;;8.59;99.32;98813.56;5095763;28;20036;-69
2023/12/25 06:27:45;;;;;;;0.20;0.20;;;;;;;8.59;99.35;98811.00;5095609;28;20409;-68
2023/12/25 06:30:27;;;;;;;0.30;0.30;;;;;;;8.53;98.75;98808.50;5095657;28;20044;-67
2023/12/25 06:32:57;;;;;;;0.40;0.40;;;;;;;8.44;98.54;98809.41;5095337;28;20048;-68
2023/12/25 06:35:26;;;;;;;0.30;0.30;;;;;;;8.37;97.97;98804.38;5094175;28;20075;-67
2023/12/25 06:37:55;;;;;;;0.20;0.20;;;;;;;8.28;97.74;98799.34;5095165;28;20048;-69
2023/12/25 06:40:24;;;;;;;0.50;0.50;;;;;;;8.37;97.58;98822.16;5095420;28;20146;-68
2023/12/25 06:42:53;;;;;;;1.20;0.88;;;;;;;8.31;97.19;98822.19;5094782;28;20055;-67
2023/12/25 06:45:22;;;;;;;0.40;0.40;;;;;;;8.29;97.91;98834.06;5095019;28;20040;-68
2023/12/25 06:47:52;;;;;;;0.40;0.40;;;;;;;8.27;97.68;98835.78;5094482;28;20054;-67
2023/12/25 06:50:22;;;;;;;0.40;0.40;;;;;;;8.18;97.51;98843.41;5093034;28;20292;-68
2023/12/25 06:52:51;;;;;;;0.30;0.30;;;;;;;8.20;96.74;98841.72;5095304;28;20048;-68
2023/12/25 06:55:20;;;;;;;0.27;0.27;;;;;;;8.26;97.11;98854.38;5094719;28;20047;-67
2023/12/25 06:57:48;;;;;;;0.45;0.45;;;;;;;8.32;96.64;98845.06;5094931;28;20036;-67
2023/12/25 07:00:18;;;;;;;0.40;0.40;;;;;;;8.38;97.35;98860.28;5094932;28;20036;-69
2023/12/25 07:02:46;;;;;;;0.35;0.35;;;;;;;8.37;97.02;98857.75;5094575;28;20040;-68
2023/12/25 07:05:17;;;;;;;0.30;0.30;;;;;;;8.39;97.19;98866.22;5094645;28;20142;-68
2023/12/25 07:07:48;;;;;;;0.30;0.30;;;;;;;8.40;97.08;98866.19;5094822;28;20122;-68
2023/12/25 07:10:16;;;;;;;0.55;0.55;;;;;;;8.45;97.09;98872.09;5094565;28;20040;-67
2023/12/25 07:12:45;;;;;;;0.30;0.30;;;;;;;8.42;96.52;98866.19;5094596;28;20039;-69
2023/12/25 07:15:14;;;;;;;0.40;0.40;;;;;;;8.42;96.38;98874.66;5094647;28;20032;-68
2023/12/25 07:17:43;;;;;;;0.50;0.50;;;;;;;8.51;96.21;98876.31;5094281;28;20036;-68
2023/12/25 07:20:12;;;;;;;0.50;0.50;;;;;;;8.58;96.42;98867.78;5094329;28;20090;-68
2023/12/25 07:22:42;;;;;;;0.32;0.32;;;;;;;8.67;95.94;98867.72;5093068;28;20126;-68
2023/12/25 07:25:11;;;;;;;0.73;0.73;;;;;;;8.70;95.96;98862.63;5093098;28;20051;-68
2023/12/25 07:27:40;;;;;;;0.30;0.30;;;;;;;8.82;95.93;98866.78;5094190;28;20036;-68
2023/12/25 07:30:10;;;;;;;3.25;1.50;;;;;;;8.81;94.79;98860.00;5093155;28;20040;-68
2023/12/25 07:32:41;;;;;;;0.30;0.30;;;;;;;8.84;94.98;98860.84;5094124;28;20055;-69
2023/12/25 07:35:11;;;;;;;0.38;0.38;;;;;;;8.95;94.82;98853.13;5094400;28;20048;-67
2023/12/25 07:37:40;;;;;;;0.20;0.20;;;;;;;8.99;94.82;98840.38;5092818;28;20040;-67
2023/12/25 07:40:11;;;;;;;0.40;0.40;;;;;;;9.17;94.08;98855.47;5093978;28;20036;-68
2023/12/25 07:42:40;;;;;;;0.77;0.77;;;;;;;9.20;94.16;98855.47;5094223;28;20043;-68
2023/12/25 07:45:13;;;;;;;0.38;0.38;;;;;;;9.10;93.69;98864.03;5094034;28;20036;-68
2023/12/25 07:47:42;;;;;;;1.23;0.98;;;;;;;8.98;93.65;98881.94;5094180;28;20079;-68
2023/12/25 07:50:11;;;;;;;0.50;0.50;;;;;;;8.89;93.26;98884.56;5093854;28;20075;-68
2023/12/25 07:52:40;;;;;;;0.50;0.50;;;;;;;8.84;93.58;98880.34;5093821;28;20078;-68
2023/12/25 07:55:10;;;;;;;0.37;0.37;;;;;;;8.80;93.64;98883.78;5093209;28;20131;-68
2023/12/25 07:57:39;;;;;;;0.40;0.40;;;;;;;8.76;93.92;98880.38;5093605;28;20055;-67
2023/12/25 08:00:10;;;;;;;0.30;0.30;;;;;;;8.85;93.87;98876.94;5093752;28;20048;-67
2023/12/25 08:02:39;;;;;;;0.20;0.20;;;;;;;8.96;93.39;98882.81;5093584;28;20165;-67
2023/12/25 08:05:08;;;;;;;0.40;0.40;;;;;;;8.97;93.32;98893.00;5094092;28;20028;-68
2023/12/25 08:07:36;;;;;;;0.30;0.30;;;;;;;8.97;93.38;98904.84;5093906;28;20032;-68
2023/12/25 08:10:06;;;;;;;0.30;0.30;;;;;;;8.96;93.92;98909.09;5093877;28;20577;-68
2023/12/25 08:12:36;;;;;;;0.38;0.38;;;;;;;8.97;93.61;98903.16;5093584;28;20301;-68
2023/12/25 08:15:06;;;;;;;0.30;0.30;;;;;;;8.96;93.24;98896.38;5093821;28;20078;-68
2023/12/25 08:17:34;;;;;;;;;;;;;;;9.02;93.74;98891.22;5094248;28;20070;-68
2023/12/25 08:20:05;;;;;;;0.60;0.60;;;;;;;9.06;93.46;98895.47;5092240;28;19920;-67
2023/12/25 08:22:34;;;;;;;0.30;0.30;;;;;;;9.04;93.41;98888.69;5093762;28;20063;-68
2023/12/25 08:25:03;;;;;;;0.50;0.50;;;;;;;9.01;93.52;98889.56;5092598;28;20082;-67
2023/12/25 08:27:32;;;;;;;0.55;0.55;;;;;;;9.09;93.86;98892.91;5093701;28;20071;-67
2023/12/25 08:30:03;;;;;;;0.40;0.40;;;;;;;9.20;93.58;98891.09;5093808;28;20044;-67
2023/12/25 08:32:32;;;;;;;0.22;0.22;;;;;;;9.22;93.61;98894.47;5093476;28;20375;-67
2023/12/25 08:35:03;;;;;;;0.40;0.40;;;;;;;9.23;93.74;98886.00;5093677;28;20051;-67
2023/12/25 08:37:32;;;;;;;0.28;0.28;;;;;;;9.27;92.85;98895.28;5093720;28;20040;-67
2023/12/25 08:40:03;;;;;;;0.30;0.30;;;;;;;9.25;92.61;98889.38;5093208;28;20051;-67
2023/12/25 08:42:32;;;;;;;0.30;0.30;;;;;;;9.14;93.16;98898.78;5093309;28;20067;-68
2023/12/25 08:45:06;;;;;;;0.30;0.30;;;;;;;9.03;93.20;98890.38;5093524;28;20059;-67
2023/12/25 08:47:35;;;;;;;0.32;0.32;;;;;;;8.99;93.55;98898.91;5093270;28;20140;-67
2023/12/25 08:50:04;;;;;;;2.95;1.40;;;;;;;9.06;93.38;98903.09;5093486;28;20390;-67
2023/12/25 08:52:33;;;;;;;0.40;0.40;;;;;;;9.19;93.73;98904.69;5093054;28;20040;-67
2023/12/25 08:55:02;;;;;;;0.80;0.80;;;;;;;9.24;93.67;98914.81;5093177;28;20032;-67
2023/12/25 08:57:35;;;;;;;0.40;0.40;;;;;;;9.22;93.32;98932.66;5093156;28;20047;-67
2023/12/25 09:00:07;;;;;;;0.40;0.40;;;;;;;9.19;93.28;98929.31;5093354;28;20393;-68
2023/12/25 09:02:37;;;;;;;0.60;0.60;;;;;;;9.19;93.32;98919.94;5092836;28;20063;-68
2023/12/25 09:05:06;;;;;;;0.40;0.40;;;;;;;9.19;93.23;98898.75;5092006;28;20127;-67
2023/12/25 09:07:35;;;;;;;;;;;;;;;9.36;92.97;98918.13;5097485;28;20044;-68
2023/12/25 09:10:06;;;;;;;0.40;0.40;;;;;;;9.42;92.73;98918.09;5096769;28;20362;-67
2023/12/25 09:12:35;;;;;;;5.15;1.10;;;;;;;9.44;92.52;98913.81;5096874;28;20044;-68
2023/12/25 09:15:06;;;;;;;1.40;0.82;;;;;;;9.35;92.69;98903.72;5095375;28;20375;-68
2023/12/25 09:17:37;;;;;;;0.40;0.40;;;;;;;9.33;92.72;98918.13;5097328;28;20481;-67
2023/12/25 09:20:07;;;;;;;0.40;0.40;;;;;;;9.27;92.73;98913.09;5096842;28;20509;-68
2023/12/25 09:22:37;;;;;;;0.35;0.35;;;;;;;9.25;92.42;98919.91;5096946;28;20048;-67
2023/12/25 09:25:07;;;;;;;0.40;0.40;;;;;;;9.25;92.64;98909.72;5096927;28;20071;-68
2023/12/25 09:27:37;;;;;;;0.73;0.73;;;;;;;9.25;92.10;98914.81;5096780;28;20055;-68
2023/12/25 09:30:09;;;;;;;0.60;0.60;;;;;;;9.27;92.63;98915.66;5095315;28;20044;-67
2023/12/25 09:32:38;;;;;;;2.90;1.90;;;;;;;9.27;92.51;98923.28;5096398;28;20424;-68
2023/12/25 09:35:09;;;;;;;0.40;0.40;;;;;;;9.22;92.72;98925.03;5096636;28;20032;-68
2023/12/25 09:37:38;;;;;;;2.13;1.92;;;;;;;9.18;92.70;98923.38;5095333;28;20044;-68
2023/12/25 09:40:09;;;;;;;0.82;0.82;;;;;;;9.12;92.41;98927.63;5096796;28;20032;-68
2023/12/25 09:42:38;;;;;;;1.35;1.25;;;;;;;9.01;92.31;98930.28;5096727;28;20498;-68
2023/12/25 09:45:11;;;;;;;0.40;0.40;;;;;;;8.95;93.23;98935.38;5096327;28;20044;-67
2023/12/25 09:47:42;;;;;;;2.22;1.05;;;;;;;8.90;92.55;98932.03;5096657;28;20138;-68
2023/12/25 09:50:12;;;;;;;0.85;0.85;;;;;;;8.86;92.68;98922.72;5096295;28;20044;-68
2023/12/25 09:52:41;;;;;;;0.35;0.35;;;;;;;8.86;93.56;98917.63;5095213;28;20055;-67
2023/12/25 09:55:10;;;;;;;0.40;0.40;;;;;;;8.87;93.52;98906.63;5096184;28;20036;-67
2023/12/25 09:57:41;;;;;;;0.98;0.90;;;;;;;8.90;93.93;98911.66;5096078;28;20076;-67
2023/12/25 10:00:12;;;;;;;0.32;0.32;;;;;;;8.94;93.75;98898.09;5096290;28;20040;-67
2023/12/25 10:02:45;;;;;;;0.40;0.40;;;;;;;9.02;94.46;98896.31;5095971;28;20078;-67
2023/12/25 10:05:15;;;;;;;0.80;0.40;;;;;;;9.10;94.45;98896.25;5096045;28;20093;-67
2023/12/25 10:07:43;;;;;;;0.57;0.57;;;;;;;9.11;94.75;98901.38;5096298;28;20051;-67
2023/12/25 10:10:13;;;;;;;0.93;0.87;;;;;;;9.14;94.46;98913.22;5096556;28;20521;-68
2023/12/25 10:12:46;;;;;;;0.30;0.30;;;;;;;9.15;94.28;98909.81;5095890;28;20044;-68
2023/12/25 10:15:16;;;;;;;0.40;0.40;;;;;;;9.15;94.19;98931.03;5096022;28;20120;-67
2023/12/25 10:17:45;;;;;;;0.43;0.43;;;;;;;9.13;94.54;98934.44;5095133;28;20493;-67
2023/12/25 10:20:19;;;;;;;0.50;0.50;;;;;;;9.16;94.81;98925.09;5095561;28;20070;-67
2023/12/25 10:22:48;;;;;;;0.63;0.63;;;;;;;9.24;94.70;98925.00;5095943;28;20052;-66
2023/12/25 10:25:17;;;;;;;0.30;0.30;;;;;;;9.37;95.45;98940.19;5095950;28;20468;-66
2023/12/25 10:27:47;;;;;;;0.40;0.40;;;;;;;9.47;94.94;98955.41;5095483;28;20135;-68
2023/12/25 10:30:19;;;;;;;0.30;0.30;;;;;;;9.49;94.89;98953.66;5095806;28;20071;-68
2023/12/25 10:32:49;;;;;;;0.30;0.30;;;;;;;9.48;94.71;98963.00;5095783;28;20044;-67
2023/12/25 10:35:19;;;;;;;0.55;0.55;;;;;;;9.56;94.94;98961.25;5094259;28;20044;-67
2023/12/25 10:37:48;;;;;;;1.08;1.05;;;;;;;9.65;94.92;98950.13;5095580;28;20040;-67
2023/12/25 10:40:22;;;;;;;0.47;0.47;;;;;;;9.74;94.67;98942.44;5095183;28;20075;-67
2023/12/25 10:42:53;;;;;;;0.40;0.40;;;;;;;9.81;94.67;98941.50;5095316;28;20055;-68
2023/12/25 10:45:25;;;;;;;0.40;0.40;;;;;;;9.92;95.05;98940.53;5094296;28;20058;-67
2023/12/25 10:47:55;;;;;;;0.30;0.30;;;;;;;10.04;94.44;98942.97;5093924;28;20150;-68
2023/12/25 10:50:27;;;;;;;2.83;2.10;;;;;;;10.13;94.55;98944.59;5095398;28;20405;-67
2023/12/25 10:53:03;;;;;;;1.95;0.93;;;;;;;10.22;93.81;98941.94;5095662;28;20101;-66
2023/12/25 10:55:36;;;;;;;0.55;0.55;;;;;;;10.33;93.64;98940.13;5095323;28;20402;-67
2023/12/25 10:58:08;;;;;;;0.52;0.52;;;;;;;10.45;92.79;98945.06;5095243;28;20093;-68
2023/12/25 11:00:43;;;;;;;0.40;0.40;;;;;;;10.54;92.01;98957.72;5095097;28;20032;-67
2023/12/25 11:03:15;;;;;;;0.40;0.40;;;;;;;10.61;91.69;98964.44;5093887;28;20070;-67
2023/12/25 11:05:45;;;;;;;0.40;0.40;;;;;;;10.72;91.08;98959.19;5095200;28;20040;-66
2023/12/25 11:08:15;;;;;;;0.30;0.30;;;;;;;10.82;90.52;98952.25;5093762;28;20058;-67
2023/12/25 11:10:59;;;;;;;0.30;0.30;;;;;;;10.99;89.62;98951.16;5094945;28;20482;-67
2023/12/25 11:13:28;;;;;;;0.55;0.50;;;;;;;11.12;88.77;98951.81;5094981;28;20054;-68
2023/12/25 11:15:59;;;;;;;3.95;0.82;;;;;;;11.27;87.59;98941.38;5094893;28;20044;-66
2023/12/25 11:18:28;;;;;;;1.05;0.50;;;;;;;11.38;86.70;98942.06;5094897;28;20060;-68
2023/12/25 11:21:04;;;;;;;0.30;0.30;;;;;;;11.48;86.08;98941.03;5094504;28;20234;-67
2023/12/25 11:23:35;;;;;;;0.95;0.63;;;;;;;11.53;85.43;98944.38;5094828;28;20139;-68
2023/12/25 11:26:07;;;;;;;1.95;0.77;;;;;;;11.58;84.40;98934.06;5094699;28;20048;-67
2023/12/25 11:28:38;;;;;;;1.20;1.02;;;;;;;11.53;84.42;98938.41;5093940;28;20040;-67
2023/12/25 11:31:08;;;;;;;0.45;0.45;;;;;;;11.47;83.94;98949.56;5094275;28;20410;-67
2023/12/25 11:33:46;;;;;;;0.30;0.30;;;;;;;11.55;83.10;98964.78;5093423;28;20134;-67
2023/12/25 11:36:16;;;;;;;0.45;0.45;;;;;;;11.61;82.08;98962.97;5094582;28;20044;-67
2023/12/25 11:38:46;;;;;;;0.68;0.68;;;;;;;11.62;81.51;98949.31;5094523;28;20044;-66
2023/12/25 11:41:16;;;;;;;;;;;;;;;11.57;81.42;98951.09;5094571;28;20040;-66
2023/12/25 11:43:47;;;;;;;0.60;0.60;;;;;;;11.53;81.13;98952.03;5076142;28;19996;-67
2023/12/25 11:46:19;;;;;;;0.73;0.60;;;;;;;11.47;81.18;98949.56;5094564;28;20052;-67
2023/12/25 11:48:50;;;;;;;0.40;0.40;;;;;;;11.39;81.33;98961.63;5094098;28;20125;-67
2023/12/25 11:51:21;;;;;;;0.47;0.47;;;;;;;11.27;81.84;98949.06;5094434;28;20130;-67